createdAt,value
2019-01-10T00:02:06.614Z,72.02
2019-01-10T00:07:34.909Z,71.92
2019-01-10T00:11:04.166Z,71.98
2019-01-10T00:19:42.387Z,71.96
2019-01-10T00:22:14.060Z,72.43
2019-01-10T00:27:42.122Z,72.27
2019-01-10T00:30:37.191Z,72.35
2019-01-10T00:33:07.642Z,72.60
2019-01-10T00:35:49.380Z,72.62
2019-01-10T00:41:16.151Z,72.62
2019-01-10T00:43:44.959Z,73.09
2019-01-10T00:46:13.769Z,73.47
2019-01-10T00:48:42.618Z,73.63
2019-01-10T00:51:11.378Z,73.63
2019-01-10T00:53:40.016Z,73.64
2019-01-10T00:56:08.901Z,73.73
2019-01-10T00:58:37.761Z,73.79
2019-01-10T01:01:06.606Z,73.61
2019-01-10T01:03:35.397Z,73.44
2019-01-10T01:06:04.593Z,73.73
2019-01-10T01:08:33.437Z,73.55
2019-01-10T01:11:02.294Z,73.47
2019-01-10T01:13:31.309Z,73.29
2019-01-10T01:15:59.979Z,73.26
2019-01-10T01:18:28.733Z,73.10
2019-01-10T01:20:57.568Z,73.49
2019-01-10T01:23:26.388Z,73.59
2019-01-10T01:25:55.175Z,73.45
2019-01-10T01:28:23.920Z,73.57
2019-01-10T01:30:52.734Z,73.98
2019-01-10T01:33:21.467Z,73.97
2019-01-10T01:35:50.269Z,73.99
2019-01-10T01:38:19.043Z,73.83
2019-01-10T01:40:47.832Z,73.95
2019-01-10T01:43:16.648Z,74.04
2019-01-10T01:45:45.429Z,74.37
2019-01-10T01:48:14.123Z,74.38
2019-01-10T01:50:42.857Z,74.02
2019-01-10T01:53:11.694Z,74.48
2019-01-10T01:55:40.554Z,74.74
2019-01-10T01:58:09.387Z,74.52
2019-01-10T02:00:38.243Z,74.71
2019-01-10T02:03:07.061Z,74.53
2019-01-10T02:05:35.876Z,74.26
2019-01-10T02:08:04.756Z,74.19
2019-01-10T02:10:33.542Z,74.15
2019-01-10T02:13:02.389Z,74.36
2019-01-10T02:15:31.184Z,74.11
2019-01-10T02:18:00.033Z,74.42
2019-01-10T02:20:28.764Z,74.66
2019-01-10T02:22:57.661Z,74.49
2019-01-10T02:25:26.389Z,74.60
2019-01-10T02:27:55.117Z,74.12
2019-01-10T02:33:39.017Z,74.70
2019-01-10T02:36:07.853Z,74.65
2019-01-10T02:38:36.592Z,74.77
2019-01-10T02:41:05.321Z,74.21
2019-01-10T02:43:34.150Z,74.27
2019-01-10T02:46:03.022Z,74.58
2019-01-10T02:48:31.785Z,74.34
2019-01-10T02:51:00.483Z,74.16
2019-01-10T02:53:29.222Z,74.32
2019-01-10T02:55:57.993Z,74.35
2019-01-10T02:58:26.731Z,74.54
2019-01-10T03:00:55.453Z,74.75
2019-01-10T03:03:24.192Z,74.78
2019-01-10T03:05:53.124Z,74.87
2019-01-10T03:08:21.897Z,74.41
2019-01-10T03:10:50.651Z,74.46
2019-01-10T03:13:19.490Z,74.68
2019-01-10T03:35:41.223Z,74.41
2019-01-10T03:38:09.985Z,74.69
2019-01-10T03:40:38.784Z,74.65
2019-01-10T03:43:07.501Z,74.10
2019-01-10T03:45:36.277Z,74.45
2019-01-10T03:48:05.085Z,74.33
2019-01-10T03:50:37.851Z,74.21
2019-01-10T03:53:06.315Z,74.42
2019-01-10T03:55:35.037Z,74.46
2019-01-10T03:58:03.755Z,74.36
2019-01-10T04:00:32.537Z,74.90
2019-01-10T04:03:01.260Z,74.69
2019-01-10T04:05:30.035Z,74.79
2019-01-10T04:07:58.742Z,74.86
2019-01-10T04:10:27.510Z,75.25
2019-01-10T04:12:56.283Z,75.10
2019-01-10T04:15:24.955Z,74.93
2019-01-10T04:17:53.772Z,74.84
2019-01-10T04:20:22.589Z,75.58
2019-01-10T04:22:51.465Z,75.13
2019-01-10T04:25:20.197Z,75.00
2019-01-10T04:27:48.946Z,75.22
2019-01-10T04:30:19.543Z,75.34
2019-01-10T04:32:48.394Z,75.26
2019-01-10T04:35:17.331Z,75.25
2019-01-10T04:37:46.253Z,75.36
2019-01-10T04:40:34.184Z,75.42
2019-01-10T04:43:02.881Z,75.56
2019-01-10T04:45:31.597Z,75.74
2019-01-10T04:48:00.359Z,75.37
2019-01-10T04:50:29.014Z,75.56
2019-01-10T04:52:57.761Z,75.53
2019-01-10T04:55:26.573Z,75.73
2019-01-10T04:57:55.331Z,75.57
2019-01-10T05:00:25.287Z,75.88
2019-01-10T05:02:54.182Z,75.70
2019-01-10T05:05:22.865Z,76.36
2019-01-10T05:07:51.580Z,75.66
2019-01-10T05:10:20.380Z,76.52
2019-01-10T05:12:49.218Z,75.97
2019-01-10T05:15:18.046Z,75.40
2019-01-10T05:17:46.907Z,75.89
2019-01-10T05:20:17.558Z,75.90
2019-01-10T05:22:46.427Z,75.88
2019-01-10T05:25:15.362Z,75.90
2019-01-10T05:27:44.282Z,75.80
2019-01-10T05:30:34.170Z,75.85
2019-01-10T05:33:02.943Z,75.31
2019-01-10T05:35:31.696Z,75.63
2019-01-10T05:38:00.534Z,75.59
2019-01-10T05:40:29.161Z,76.34
2019-01-10T05:42:57.796Z,75.92
2019-01-10T05:45:26.411Z,75.76
2019-01-10T05:47:55.117Z,75.79
2019-01-10T05:50:23.887Z,75.85
2019-01-10T05:52:52.624Z,75.90
2019-01-10T05:55:22.529Z,75.99
2019-01-10T05:57:51.355Z,76.11
2019-01-10T06:00:22.998Z,76.08
2019-01-10T06:02:51.808Z,76.24
2019-01-10T06:05:20.744Z,76.13
2019-01-10T06:07:49.439Z,76.26
2019-01-10T06:10:23.182Z,76.47
2019-01-10T06:15:39.761Z,76.22
2019-01-10T06:18:08.530Z,76.31
2019-01-10T06:20:37.524Z,76.82
2019-01-10T06:23:06.462Z,76.98
2019-01-10T06:25:35.298Z,76.97
2019-01-10T06:28:04.243Z,77.14
2019-01-10T06:30:33.127Z,77.39
2019-01-10T06:33:01.993Z,77.48
2019-01-10T06:35:30.950Z,77.46
2019-01-10T06:37:59.705Z,77.56
2019-01-10T06:40:28.571Z,77.95
2019-01-10T06:42:57.461Z,78.11
2019-01-10T06:45:26.336Z,77.80
2019-01-10T06:47:55.236Z,78.07
2019-01-10T06:50:24.109Z,78.24
2019-01-10T06:52:53.051Z,78.53
2019-01-10T06:55:21.907Z,78.27
2019-01-10T06:57:50.832Z,78.16
2019-01-10T07:00:21.795Z,78.30
2019-01-10T07:02:50.795Z,77.81
2019-01-10T07:05:19.829Z,77.48
2019-01-10T07:07:56.368Z,77.49
2019-01-10T07:10:38.348Z,77.39
2019-01-10T07:13:06.981Z,77.53
2019-01-10T07:15:35.665Z,77.62
2019-01-10T07:18:04.375Z,77.91
2019-01-10T07:20:38.734Z,77.24
2019-01-10T07:23:07.488Z,77.26
2019-01-10T07:25:36.154Z,77.48
2019-01-10T07:28:24.595Z,78.29
2019-01-10T07:30:55.035Z,78.07
2019-01-10T07:33:23.855Z,78.59
2019-01-10T07:35:54.672Z,78.44
2019-01-10T07:38:23.294Z,77.79
2019-01-10T07:40:51.997Z,77.60
2019-01-10T07:43:40.059Z,77.56
2019-01-10T07:46:08.730Z,77.64
2019-01-10T07:48:37.481Z,77.27
2019-01-10T07:51:06.393Z,77.44
2019-01-10T07:53:35.314Z,77.81
2019-01-10T07:56:04.838Z,76.78
2019-01-10T07:58:34.526Z,76.76
2019-01-10T08:01:03.546Z,76.50
2019-01-10T08:03:32.462Z,75.91
2019-01-10T08:06:01.358Z,75.54
2019-01-10T08:08:30.469Z,75.89
2019-01-10T08:10:59.341Z,75.96
2019-01-10T08:13:28.150Z,75.84
2019-01-10T08:15:56.981Z,75.36
2019-01-10T08:18:25.831Z,74.97
2019-01-10T08:20:54.713Z,75.14
2019-01-10T08:23:23.462Z,74.85
2019-01-10T08:25:52.486Z,74.79
2019-01-10T08:28:21.687Z,75.03
2019-01-10T08:30:50.545Z,74.35
2019-01-10T08:33:19.405Z,73.89
2019-01-10T08:35:48.327Z,73.85
2019-01-10T08:38:17.150Z,73.41
2019-01-10T08:40:46.037Z,73.77
2019-01-10T08:43:15.026Z,73.63
2019-01-10T08:45:43.842Z,73.33
2019-01-10T08:48:14.795Z,73.34
2019-01-10T08:50:43.125Z,73.44
2019-01-10T08:53:11.859Z,72.33
2019-01-10T08:55:40.733Z,72.87
2019-01-10T08:58:09.520Z,72.57
2019-01-10T09:00:38.137Z,72.56
2019-01-10T09:03:06.868Z,72.50
2019-01-10T09:05:35.497Z,72.72
2019-01-10T09:08:04.193Z,72.37
2019-01-10T09:10:34.625Z,72.68
2019-01-10T09:13:03.466Z,73.49
2019-01-10T09:15:34.721Z,72.94
2019-01-10T09:18:02.843Z,73.19
2019-01-10T09:20:31.673Z,72.96
2019-01-10T09:23:00.509Z,72.84
2019-01-10T09:25:29.369Z,73.13
2019-01-10T09:27:58.336Z,72.80
2019-01-10T09:30:27.179Z,71.44
2019-01-10T09:32:56.120Z,70.62
2019-01-10T09:35:25.070Z,70.48
2019-01-10T09:37:53.871Z,69.56
2019-01-10T09:40:23.249Z,68.75
2019-01-10T09:42:52.004Z,69.37
2019-01-10T09:45:22.588Z,68.71
2019-01-10T09:47:51.238Z,68.62
2019-01-10T09:50:20.385Z,67.49
2019-01-10T09:52:49.515Z,65.99
2019-01-10T09:55:20.459Z,66.68
2019-01-10T09:57:49.171Z,66.04
2019-01-10T10:00:38.024Z,65.38
2019-01-10T10:06:07.516Z,65.27
2019-01-10T10:10:59.419Z,64.84
2019-01-10T10:13:28.455Z,64.91
2019-01-10T10:15:57.528Z,65.41
2019-01-10T10:18:28.874Z,66.04
2019-01-10T10:20:57.906Z,66.23
2019-01-10T10:23:27.213Z,66.58
2019-01-10T10:25:57.399Z,66.61
2019-01-10T10:28:26.211Z,66.92
2019-01-10T10:30:55.286Z,66.67
2019-01-10T10:33:23.993Z,66.78
2019-01-10T10:35:52.825Z,66.69
2019-01-10T10:38:21.701Z,67.01
2019-01-10T10:40:50.468Z,66.24
2019-01-10T10:43:19.336Z,65.86
2019-01-10T10:45:48.114Z,66.22
2019-01-10T10:48:16.863Z,65.91
2019-01-10T10:50:45.648Z,66.08
2019-01-10T10:53:14.308Z,66.04
2019-01-10T10:55:43.050Z,65.93
2019-01-10T10:58:11.836Z,65.83
2019-01-10T11:00:40.609Z,65.59
2019-01-10T11:03:09.407Z,65.90
2019-01-10T11:05:38.142Z,66.01
2019-01-10T11:08:06.887Z,65.99
2019-01-10T11:10:35.587Z,65.97
2019-01-10T11:13:04.395Z,66.15
2019-01-10T11:15:33.152Z,66.55
2019-01-10T11:18:02.104Z,66.86
2019-01-10T11:20:30.840Z,67.12
2019-01-10T11:22:59.591Z,66.30
2019-01-10T11:25:29.577Z,65.87
2019-01-10T11:27:59.841Z,66.08
2019-01-10T11:30:32.215Z,66.20
2019-01-10T11:33:01.316Z,66.62
2019-01-10T11:35:30.171Z,67.08
2019-01-10T11:37:58.951Z,66.99
2019-01-10T11:40:27.929Z,66.65
2019-01-10T11:42:56.839Z,67.17
2019-01-10T11:45:26.943Z,67.28
2019-01-10T11:47:55.703Z,67.12
2019-01-10T11:50:24.536Z,67.70
2019-01-10T11:52:53.554Z,67.57
2019-01-10T11:55:22.414Z,67.87
2019-01-10T11:57:51.325Z,67.41
2019-01-10T12:00:43.620Z,67.42
2019-01-10T12:03:12.480Z,66.64
2019-01-10T12:06:00.557Z,66.14
2019-01-10T12:08:29.420Z,65.72
2019-01-10T12:10:58.172Z,65.28
2019-01-10T12:13:27.051Z,64.97
2019-01-10T12:15:56.167Z,64.39
2019-01-10T12:18:25.066Z,65.26
2019-01-10T12:23:43.362Z,64.21
2019-01-10T12:26:12.187Z,64.58
2019-01-10T12:28:41.012Z,65.06
2019-01-10T12:31:09.884Z,64.87
2019-01-10T12:33:38.704Z,64.51
2019-01-10T12:36:09.844Z,64.64
2019-01-10T12:38:38.849Z,64.90
2019-01-10T12:41:07.599Z,65.07
2019-01-10T12:43:36.296Z,65.58
2019-01-10T12:46:06.022Z,65.73
2019-01-10T12:48:35.634Z,65.68
2019-01-10T12:51:04.496Z,66.07
2019-01-10T12:53:33.198Z,66.01
2019-01-10T12:56:01.914Z,65.61
2019-01-10T12:58:30.652Z,64.96
2019-01-10T13:00:59.389Z,64.63
2019-01-10T13:03:28.244Z,63.45
2019-01-10T13:05:57.403Z,63.37
2019-01-10T13:08:26.188Z,62.95
2019-01-10T13:10:54.959Z,62.32
2019-01-10T13:13:24.172Z,61.54
2019-01-10T13:15:52.912Z,61.66
2019-01-10T13:18:21.582Z,60.78
2019-01-10T13:20:50.360Z,61.02
2019-01-10T13:23:19.327Z,60.61
2019-01-10T13:25:48.091Z,60.19
2019-01-10T13:28:16.788Z,59.55
2019-01-10T13:30:45.417Z,60.35
2019-01-10T13:33:14.062Z,60.65
2019-01-10T13:38:19.160Z,60.94
2019-01-10T13:40:48.019Z,61.48
2019-01-10T13:43:16.800Z,61.29
2019-01-10T13:45:46.493Z,62.01
2019-01-10T13:48:16.286Z,62.11
2019-01-10T13:50:44.907Z,62.10
2019-01-10T13:53:13.603Z,61.82
2019-01-10T13:55:42.292Z,62.50
2019-01-10T13:58:11.139Z,62.03
2019-01-10T14:00:40.001Z,62.57
2019-01-10T14:03:11.691Z,62.10
2019-01-10T14:05:39.141Z,62.58
2019-01-10T14:08:07.863Z,62.66
2019-01-10T14:10:36.491Z,62.06
2019-01-10T14:13:05.281Z,61.76
2019-01-10T14:15:35.322Z,61.91
2019-01-10T14:18:24.820Z,62.26
2019-01-10T14:20:53.565Z,62.13
2019-01-10T14:23:43.016Z,62.17
2019-01-10T14:26:11.877Z,61.29
2019-01-10T14:28:40.707Z,60.75
2019-01-10T14:31:09.605Z,61.05
2019-01-10T14:33:57.692Z,61.45
2019-01-10T14:36:26.675Z,61.98
2019-01-10T14:38:55.526Z,61.38
2019-01-10T14:41:24.472Z,61.58
2019-01-10T14:43:53.515Z,61.94
2019-01-10T14:46:22.147Z,62.30
2019-01-10T14:48:50.963Z,62.72
2019-01-10T14:51:19.699Z,63.44
2019-01-10T14:53:48.404Z,63.08
2019-01-10T14:56:17.047Z,63.53
2019-01-10T14:58:45.798Z,63.70
2019-01-10T15:01:14.485Z,63.86
2019-01-10T15:03:43.128Z,64.49
2019-01-10T15:06:11.841Z,63.89
2019-01-10T15:11:39.694Z,63.33
2019-01-10T15:14:08.576Z,63.46
2019-01-10T15:16:37.273Z,62.33
2019-01-10T15:19:08.401Z,63.52
2019-01-10T15:21:37.089Z,63.15
2019-01-10T15:24:05.920Z,63.14
2019-01-10T15:26:34.587Z,63.29
2019-01-10T15:29:03.359Z,62.40
2019-01-10T15:31:32.214Z,62.96
2019-01-10T15:34:00.805Z,62.71
2019-01-10T15:36:29.506Z,63.25
2019-01-10T15:38:58.167Z,62.93
2019-01-10T15:41:26.791Z,62.96
2019-01-10T15:43:55.926Z,63.13
2019-01-10T15:46:24.642Z,62.91
2019-01-10T15:48:53.786Z,61.52
2019-01-10T15:51:22.471Z,62.19
2019-01-10T15:53:51.266Z,62.08
2019-01-10T15:56:20.016Z,62.80
2019-01-10T15:58:49.123Z,62.85
2019-01-10T16:01:17.893Z,62.58
2019-01-10T16:03:46.554Z,62.67
2019-01-10T16:06:15.303Z,62.54
2019-01-10T16:08:43.919Z,62.67
2019-01-10T16:11:12.621Z,62.49
2019-01-10T16:13:41.268Z,61.41
2019-01-10T16:16:09.963Z,61.17
2019-01-10T16:18:38.589Z,61.42
2019-01-10T16:21:07.359Z,61.86
2019-01-10T16:23:36.032Z,62.23
2019-01-10T16:26:04.861Z,62.17
2019-01-10T16:28:34.225Z,62.04
2019-01-10T16:31:04.025Z,62.60
2019-01-10T16:33:32.645Z,62.42
2019-01-10T16:39:23.678Z,63.02
2019-01-10T16:45:00.083Z,63.17
2019-01-10T16:53:36.351Z,63.32
2019-01-10T16:56:27.801Z,63.47
2019-01-10T16:59:03.821Z,63.37
2019-01-10T17:04:32.047Z,64.09
2019-01-10T17:10:31.421Z,63.04
2019-01-10T17:16:01.500Z,63.81
2019-01-10T17:20:41.743Z,64.23
2019-01-10T17:24:31.851Z,64.83
2019-01-10T17:39:19.509Z,65.31
2019-01-10T17:41:57.905Z,65.37
2019-01-10T17:54:22.918Z,64.52
2019-01-10T17:56:50.416Z,65.22
2019-01-10T18:05:47.247Z,66.86
2019-01-10T18:18:05.500Z,69.76
2019-01-10T18:23:50.319Z,69.70
2019-01-10T18:36:05.550Z,72.73
2019-01-10T18:44:11.591Z,75.99
2019-01-10T18:46:42.038Z,75.78
2019-01-10T18:49:17.129Z,75.95
2019-01-10T18:51:46.880Z,76.29
2019-01-10T19:00:28.697Z,76.21
2019-01-10T19:03:01.988Z,76.60
2019-01-10T19:11:40.250Z,78.12
2019-01-10T20:02:49.520Z,79.49
2019-01-10T20:32:57.643Z,82.23
2019-01-10T20:35:29.019Z,81.36
2019-01-10T21:04:47.856Z,84.44
2019-01-10T21:07:22.366Z,84.22
2019-01-10T21:27:40.336Z,85.04
2019-01-10T21:48:40.714Z,84.08
2019-01-10T21:57:37.057Z,84.77
2019-01-10T22:00:09.016Z,85.17
2019-01-10T22:02:49.270Z,84.87
2019-01-10T22:11:22.173Z,84.78
2019-01-10T22:23:30.564Z,84.55
2019-01-10T22:38:13.748Z,85.31
2019-01-10T22:46:49.939Z,84.89
2019-01-10T22:55:30.639Z,86.56
2019-01-10T23:10:27.287Z,86.91
2019-01-10T23:16:04.912Z,85.37
2019-01-10T23:18:54.346Z,85.61
2019-01-10T23:30:37.075Z,84.83
2019-01-10T23:39:25.179Z,84.55
